createdAt,value
2018-03-03T05:47:29.559Z,239.00
2018-03-03T05:50:14.976Z,282.02
2018-03-03T05:52:58.294Z,280.90
2018-03-03T05:55:43.448Z,274.73
2018-03-03T05:58:15.843Z,271.10
2018-03-03T06:00:48.189Z,268.20
2018-03-03T06:03:21.758Z,286.10
2018-03-03T06:06:03.069Z,255.63
2018-03-03T06:08:46.341Z,241.10
2018-03-03T06:11:12.798Z,234.50
2018-03-03T06:13:39.252Z,259.58
2018-03-03T06:16:06.373Z,236.57
2018-03-03T06:18:32.837Z,231.35
2018-03-03T06:21:00.084Z,270.88
2018-03-03T06:23:26.453Z,258.33
2018-03-03T06:25:52.845Z,258.70
2018-03-03T06:28:19.239Z,260.48
2018-03-03T06:30:45.633Z,244.68
2018-03-03T06:33:12.762Z,239.98
2018-03-03T06:35:39.162Z,240.05
2018-03-03T06:38:05.562Z,235.90
2018-03-03T06:40:31.934Z,233.87
2018-03-03T06:42:58.318Z,225.68
2018-03-03T06:45:25.446Z,223.62
2018-03-03T06:47:51.847Z,227.57
2018-03-03T06:50:18.270Z,210.10
2018-03-03T06:52:44.645Z,205.70
2018-03-03T06:55:11.049Z,205.95
2018-03-03T06:57:37.421Z,234.75
2018-03-03T07:00:04.585Z,267.30
2018-03-03T07:02:31.729Z,272.98
2018-03-03T07:04:58.843Z,286.95
2018-03-03T07:07:25.278Z,282.75
2018-03-03T07:09:51.674Z,337.63
2018-03-03T07:12:18.117Z,372.95
2018-03-03T07:14:47.323Z,513.47
2018-03-03T07:17:13.765Z,406.48
2018-03-03T07:19:40.197Z,478.75
2018-03-03T07:22:06.566Z,563.37
2018-03-03T07:24:32.982Z,482.30
2018-03-03T07:26:59.369Z,599.55
2018-03-03T07:29:26.579Z,508.48
2018-03-03T07:31:53.104Z,432.33
2018-03-03T07:34:19.520Z,286.62
2018-03-03T07:36:45.956Z,218.55
2018-03-03T07:39:12.366Z,229.90
2018-03-03T07:41:38.766Z,240.32
2018-03-03T07:44:05.916Z,184.48
2018-03-03T07:46:33.076Z,185.10
2018-03-03T07:48:59.565Z,167.50
2018-03-03T07:51:26.001Z,169.90
2018-03-03T07:53:52.464Z,163.68
2018-03-03T07:56:18.900Z,163.87
2018-03-03T07:58:49.246Z,158.85
2018-03-03T08:01:16.552Z,143.02
2018-03-03T08:03:42.983Z,144.20
2018-03-03T08:15:54.306Z,137.07
2018-03-03T08:18:21.559Z,131.18
2018-03-03T08:20:48.678Z,133.20
2018-03-03T08:23:15.083Z,131.57
2018-03-03T08:25:41.494Z,157.60
2018-03-03T08:28:07.891Z,153.12
2018-03-03T08:30:34.302Z,148.32
2018-03-03T08:33:00.717Z,149.38
2018-03-03T08:35:27.125Z,112.85
2018-03-03T08:37:53.537Z,144.05
2018-03-03T08:40:20.678Z,144.25
2018-03-03T08:42:47.825Z,149.57
2018-03-03T10:00:51.190Z,123.65
2018-03-03T10:03:18.337Z,133.60
2018-03-03T10:05:45.537Z,134.95
2018-03-03T10:08:12.000Z,135.45
2018-03-03T10:10:38.389Z,131.07
2018-03-03T10:13:04.839Z,121.62
2018-03-03T10:15:31.280Z,118.18
2018-03-03T10:17:57.768Z,128.60
2018-03-03T10:20:24.943Z,121.72
2018-03-03T10:22:51.455Z,116.15
2018-03-03T10:25:18.640Z,118.35
2018-03-03T10:27:45.074Z,104.57
2018-03-03T10:30:11.502Z,110.63
2018-03-03T10:32:37.961Z,124.43
2018-03-03T10:35:04.379Z,114.37
2018-03-03T10:37:30.785Z,120.68
2018-03-03T10:39:57.918Z,103.38
2018-03-03T10:42:24.317Z,104.90
2018-03-03T10:44:50.716Z,106.57
2018-03-03T10:47:17.156Z,100.93
2018-03-03T10:49:43.582Z,104.63
2018-03-03T10:52:09.963Z,100.18
2018-03-03T10:54:36.378Z,108.25
2018-03-03T10:57:02.773Z,102.70
2018-03-03T10:59:29.918Z,87.82
2018-03-03T11:01:57.057Z,105.28
2018-03-03T11:04:23.430Z,109.57
2018-03-03T11:06:49.825Z,112.22
2018-03-03T11:09:16.219Z,104.68
2018-03-03T11:11:42.665Z,103.82
2018-03-03T11:14:09.033Z,109.63
2018-03-03T11:16:35.438Z,97.30
2018-03-03T11:19:01.813Z,105.53
2018-03-03T16:43:34.007Z,70.32
2018-03-03T16:46:00.411Z,75.12
2018-03-03T16:48:26.810Z,70.22
2018-03-03T16:50:53.970Z,73.37
2018-03-03T16:53:20.370Z,73.65
2018-03-03T16:55:46.816Z,68.47
2018-03-03T16:58:13.975Z,71.45
2018-03-03T17:00:40.482Z,69.82
2018-03-03T17:03:06.921Z,69.25
2018-03-03T17:05:33.354Z,71.03
2018-03-03T17:07:59.798Z,69.18
2018-03-03T17:10:26.239Z,72.75
2018-03-03T17:12:52.680Z,72.40
2018-03-03T17:15:19.885Z,69.35
2018-03-03T17:17:46.349Z,68.18
2018-03-03T17:20:12.788Z,66.40
2018-03-03T17:22:39.211Z,68.90
2018-03-03T17:25:05.625Z,67.70
2018-03-03T17:27:32.048Z,69.43
2018-03-03T17:29:58.537Z,70.53
2018-03-03T17:32:25.724Z,65.20
2018-03-03T17:34:52.163Z,68.25
2018-03-03T17:37:18.622Z,69.05
2018-03-03T17:39:45.007Z,70.70
2018-03-03T17:42:12.150Z,65.20
2018-03-03T17:44:39.362Z,67.28
2018-03-03T17:47:05.776Z,74.32
2018-03-03T17:49:32.174Z,72.53
2018-03-03T17:51:59.343Z,69.10
2018-03-03T17:54:26.498Z,72.27
2018-03-03T17:56:52.967Z,76.55
2018-03-03T17:59:19.396Z,70.10
2018-03-03T18:01:45.852Z,72.10
2018-03-03T18:04:12.271Z,69.25
2018-03-03T18:06:38.694Z,83.47
2018-03-03T18:09:05.119Z,81.35
2018-03-03T18:11:31.555Z,73.22
2018-03-03T18:13:57.946Z,70.60
2018-03-03T18:16:24.367Z,69.20
2018-03-03T18:18:50.818Z,70.55
2018-03-03T18:21:17.969Z,71.00
2018-03-03T18:23:44.378Z,67.20
2018-03-03T18:26:10.770Z,70.70
2018-03-03T18:28:37.171Z,76.30
2018-03-03T18:31:03.556Z,72.72
2018-03-03T18:33:29.966Z,74.60
2018-03-03T18:35:56.402Z,80.10
2018-03-03T18:38:22.808Z,74.12
2018-03-03T18:40:49.949Z,76.05
2018-03-03T18:43:16.384Z,75.00
2018-03-03T18:45:42.854Z,73.53
2018-03-03T18:48:09.328Z,73.12
2018-03-03T18:50:35.737Z,73.95
2018-03-03T18:53:02.122Z,84.85
2018-03-03T18:55:28.546Z,83.00
2018-03-03T18:57:54.936Z,87.40
2018-03-03T19:00:21.387Z,98.65
2018-03-03T19:02:47.808Z,93.03
2018-03-03T19:05:14.242Z,92.18
2018-03-03T19:07:40.639Z,94.25
2018-03-03T19:10:07.064Z,94.25
2018-03-03T19:12:33.496Z,97.22
2018-03-03T19:14:59.927Z,92.30
2018-03-03T19:17:26.346Z,87.00
2018-03-03T19:19:52.778Z,85.40
2018-03-03T19:22:19.202Z,89.25
2018-03-03T19:24:45.624Z,89.10
2018-03-03T19:27:12.040Z,89.10
2018-03-03T19:29:38.446Z,94.15
2018-03-03T19:32:04.840Z,96.43
2018-03-03T19:34:31.275Z,90.43
2018-03-03T19:36:57.696Z,95.00
2018-03-03T19:39:24.118Z,89.68
2018-03-03T19:41:50.498Z,94.35
2018-03-03T19:44:16.956Z,91.25
2018-03-03T19:46:44.123Z,89.55
2018-03-03T19:49:11.322Z,85.68
2018-03-03T19:51:37.758Z,88.97
2018-03-03T19:54:04.169Z,88.20
2018-03-03T19:56:30.603Z,92.40
2018-03-03T19:58:57.016Z,85.12
2018-03-03T20:01:24.231Z,89.47
2018-03-03T20:03:50.722Z,87.32
2018-03-03T20:06:17.264Z,92.78
2018-03-03T20:08:43.708Z,89.93
2018-03-03T20:11:10.147Z,86.65
2018-03-03T20:13:36.610Z,90.80
2018-03-03T20:16:03.773Z,84.55
2018-03-03T20:18:30.215Z,86.97
2018-03-03T20:20:57.411Z,81.37
2018-03-03T20:23:23.860Z,89.70
2018-03-03T20:25:50.323Z,84.22
2018-03-03T20:28:16.727Z,86.53
2018-03-03T20:30:43.182Z,87.30
2018-03-03T20:33:09.640Z,90.25
2018-03-03T20:35:36.074Z,92.30
2018-03-03T20:38:02.558Z,90.90
2018-03-03T20:40:28.995Z,86.95
2018-03-03T20:42:55.451Z,84.18
2018-03-03T20:45:21.843Z,88.40
2018-03-03T20:47:48.282Z,85.10
2018-03-03T20:50:14.761Z,84.95
2018-03-03T20:52:41.238Z,88.72
2018-03-03T20:55:08.442Z,88.40
2018-03-03T20:57:34.866Z,87.10
2018-03-03T21:00:01.364Z,88.03
2018-03-03T21:02:28.630Z,87.32
2018-03-03T21:04:55.113Z,87.07
2018-03-03T21:07:21.615Z,93.45
2018-03-03T21:09:48.047Z,92.35
2018-03-03T21:12:17.417Z,94.13
2018-03-03T21:14:44.559Z,97.85
2018-03-03T21:17:11.043Z,94.07
2018-03-03T21:19:37.490Z,96.72
2018-03-03T21:22:03.895Z,94.22
2018-03-03T21:24:30.333Z,95.87
2018-03-03T21:26:56.739Z,95.87
2018-03-03T21:29:23.922Z,87.60
2018-03-03T21:31:50.352Z,96.78
2018-03-03T21:34:16.807Z,92.60
2018-03-03T21:36:43.255Z,90.55
2018-03-03T21:39:09.674Z,93.32
2018-03-03T21:41:36.105Z,87.50
2018-03-03T21:44:02.542Z,91.50
2018-03-03T21:46:28.963Z,91.47
2018-03-03T21:48:55.379Z,91.03
2018-03-03T21:51:22.587Z,92.75
2018-03-03T21:53:49.043Z,92.82
2018-03-03T21:56:15.478Z,90.32
2018-03-03T21:58:41.961Z,92.88
2018-03-03T22:01:08.403Z,97.70
2018-03-03T22:03:34.821Z,91.37
2018-03-03T22:06:01.236Z,87.40
2018-03-03T22:08:28.394Z,94.55
2018-03-03T22:10:54.905Z,90.20
2018-03-03T22:13:22.142Z,92.83
2018-03-03T22:15:48.663Z,87.00
2018-03-03T22:18:15.108Z,88.62
2018-03-03T22:20:41.536Z,88.50
2018-03-03T22:23:07.963Z,90.33
2018-03-03T22:25:34.500Z,88.32
2018-03-03T22:28:00.933Z,91.68
2018-03-03T22:30:27.326Z,87.43
2018-03-03T22:32:54.497Z,95.38
2018-03-03T22:35:20.878Z,95.55
2018-03-03T22:37:47.288Z,92.68
2018-03-03T22:40:13.658Z,94.07
2018-03-03T22:42:40.097Z,90.45
2018-03-03T22:45:07.279Z,86.35
2018-03-03T22:47:33.668Z,94.10
2018-03-03T22:50:00.823Z,92.72
2018-03-03T22:52:27.194Z,95.55
2018-03-03T22:54:54.603Z,92.22
2018-03-03T22:57:21.042Z,94.47
2018-03-03T22:59:47.440Z,89.70
2018-03-03T23:02:13.897Z,92.43
2018-03-03T23:04:40.320Z,92.45
2018-03-03T23:07:06.740Z,89.55
2018-03-03T23:09:33.201Z,88.68
2018-03-03T23:11:59.598Z,90.80
2018-03-03T23:14:26.014Z,90.00
2018-03-03T23:16:53.189Z,87.00
2018-03-03T23:19:19.672Z,92.82
2018-03-03T23:21:46.046Z,89.80
2018-03-03T23:24:12.501Z,93.30
2018-03-03T23:26:38.902Z,88.90
2018-03-03T23:29:06.024Z,85.55
2018-03-03T23:31:32.446Z,86.18
2018-03-03T23:33:58.850Z,83.12
2018-03-03T23:36:25.283Z,88.45
2018-03-03T23:38:51.700Z,83.83
2018-03-03T23:41:18.834Z,79.07
2018-03-03T23:43:45.259Z,84.68
2018-03-03T23:46:11.723Z,84.00
2018-03-03T23:48:38.143Z,86.43
2018-03-03T23:51:05.298Z,88.40
2018-03-03T23:53:32.463Z,86.47
2018-03-03T23:55:58.896Z,84.33
2018-03-03T23:58:26.026Z,83.82
